Time;durP1;ratioP1;P1;durP2;ratioP2;P2;SDS_P1;SDS_P2;PMS_P1;PMS_P2;Temp;Humidity;BMP_temperature;BMP_pressure;BME280_temperature;BME280_humidity;BME280_pressure;Samples;Min_cycle;Max_cycle;Signal;HPM_P1;HPM_P2
2022/08/21 00:00:46;;;;;;;5.05;4.55;;;;;;;17.59;84.04;98170.00;5030188;28;20049;-88
2022/08/21 00:03:13;;;;;;;6.45;4.75;;;;;;;17.57;84.79;98169.47;5048058;28;20137;-88
2022/08/21 00:05:49;;;;;;;3.97;3.47;;;;;;;17.54;84.75;98161.97;5052061;28;20087;-88
2022/08/21 00:08:20;;;;;;;4.78;3.60;;;;;;;17.46;84.58;98156.28;5016687;28;20065;-88
2022/08/21 00:10:49;;;;;;;4.00;3.60;;;;;;;17.38;84.71;98154.81;5044280;28;20508;-89
2022/08/21 00:13:18;;;;;;;4.10;3.70;;;;;;;17.39;84.92;98159.06;5053278;28;20049;-90
2022/08/21 00:15:47;;;;;;;3.85;3.55;;;;;;;17.24;85.71;98162.31;5069814;28;20045;-89
2022/08/21 00:18:14;;;;;;;4.07;3.67;;;;;;;17.26;85.55;98162.06;5051888;28;20447;-89
2022/08/21 00:20:44;;;;;;;5.13;3.70;;;;;;;16.95;86.74;98158.91;5070495;28;20041;-89
2022/08/21 00:23:13;;;;;;;14.23;4.97;;;;;;;16.80;87.65;98154.16;5051886;28;20049;-91
2022/08/21 00:25:43;;;;;;;4.45;3.95;;;;;;;16.90;87.74;98163.31;5060542;28;20271;-89
2022/08/21 00:28:11;;;;;;;3.17;2.88;;;;;;;16.93;88.11;98163.66;5032784;28;20045;-89
2022/08/21 00:30:40;;;;;;;3.58;2.30;;;;;;;17.07;88.00;98158.84;5032623;28;20042;-88
2022/08/21 00:33:10;;;;;;;3.45;3.05;;;;;;;17.35;88.02;98177.34;5046125;28;20044;-88
2022/08/21 00:35:41;;;;;;;14.38;4.45;;;;;;;17.34;86.42;98174.94;5033131;28;20045;-89
2022/08/21 00:38:09;;;;;;;16.33;3.90;;;;;;;17.24;86.47;98164.97;5033808;28;20045;-90
2022/08/21 00:40:49;;;;;;;14.25;3.58;;;;;;;17.06;87.18;98163.34;5032533;28;20049;-90
2022/08/21 00:43:23;;;;;;;14.00;2.73;;;;;;;16.83;87.84;98158.97;5033194;28;20045;-91
2022/08/21 00:45:53;;;;;;;10.73;2.63;;;;;;;16.84;87.96;98157.13;5016115;28;20091;-91
2022/08/21 00:48:20;;;;;;;3.03;2.10;;;;;;;16.83;88.10;98152.88;5027885;28;20048;-92
2022/08/21 00:50:57;;;;;;;17.80;3.08;;;;;;;16.85;88.12;98159.53;5069217;28;20528;-90
2022/08/21 00:53:26;;;;;;;2.72;2.40;;;;;;;16.79;88.51;98138.47;5038628;28;20092;-90
2022/08/21 00:55:55;;;;;;;2.10;1.90;;;;;;;16.96;87.55;98135.84;5032768;28;20493;-90
2022/08/21 00:58:24;;;;;;;11.23;3.50;;;;;;;16.88;87.23;98142.34;5033594;28;20045;-91
2022/08/21 01:00:51;;;;;;;13.27;3.35;;;;;;;16.75;87.92;98146.13;5033317;28;20049;-89
2022/08/21 01:03:24;;;;;;;7.45;3.03;;;;;;;16.64;88.38;98154.88;5049550;28;20056;-90
2022/08/21 01:05:53;;;;;;;4.00;3.13;;;;;;;16.63;88.32;98145.34;5048738;28;20046;-90
2022/08/21 01:08:22;;;;;;;3.58;2.63;;;;;;;16.64;88.01;98132.91;5041590;28;20535;-91
2022/08/21 01:10:52;;;;;;;2.17;1.98;;;;;;;16.88;87.96;98141.56;5032126;28;20049;-90
2022/08/21 01:13:24;;;;;;;3.90;2.22;;;;;;;16.95;87.83;98144.84;5031643;28;20091;-91
2022/08/21 01:15:56;;;;;;;2.15;1.95;;;;;;;17.03;87.60;98126.75;5038064;28;20392;-91
2022/08/21 01:18:23;;;;;;;2.38;2.17;;;;;;;17.20;87.17;98136.50;5068406;28;20117;-91
2022/08/21 01:21:11;;;;;;;2.67;2.25;;;;;;;17.35;86.37;98148.16;5067946;28;20128;-91
2022/08/21 01:23:43;;;;;;;3.03;2.72;;;;;;;17.43;85.72;98146.16;5048297;28;20041;-91
2022/08/21 01:26:15;;;;;;;2.65;2.42;;;;;;;17.50;85.85;98146.78;5033479;28;20034;-91
2022/08/21 01:28:52;;;;;;;2.92;2.63;;;;;;;17.49;85.02;98145.19;5049477;28;20073;-90
2022/08/21 01:31:24;;;;;;;2.85;2.28;;;;;;;17.57;84.83;98147.41;5037461;28;20128;-91
2022/08/21 01:33:52;;;;;;;2.10;1.90;;;;;;;17.55;84.23;98150.31;5032181;28;20037;-90
2022/08/21 01:36:19;;;;;;;2.85;2.33;;;;;;;17.49;84.66;98145.97;5033278;28;20052;-91
2022/08/21 01:38:47;;;;;;;2.75;2.50;;;;;;;17.51;85.09;98148.38;5031579;28;20064;-91
2022/08/21 01:41:15;;;;;;;2.88;2.53;;;;;;;17.46;85.11;98146.47;5048751;28;20061;-90
2022/08/21 01:43:44;;;;;;;2.67;2.30;;;;;;;17.40;84.58;98152.75;5058422;28;20045;-91
2022/08/21 01:46:13;;;;;;;2.65;2.40;;;;;;;17.41;84.62;98135.81;5046701;28;20037;-91
2022/08/21 01:48:42;;;;;;;2.70;2.50;;;;;;;17.56;84.39;98145.81;5053307;28;20472;-91
2022/08/21 01:51:09;;;;;;;3.95;3.53;;;;;;;17.39;83.46;98157.25;5068638;28;20124;-90
2022/08/21 01:53:37;;;;;;;3.20;2.90;;;;;;;17.27;84.37;98143.28;5048908;28;20077;-91
2022/08/21 01:56:11;;;;;;;2.33;2.13;;;;;;;17.32;85.13;98140.69;5059800;28;20110;-91
2022/08/21 01:58:43;;;;;;;2.60;2.40;;;;;;;17.44;84.78;98142.44;5052649;28;20049;-90
2022/08/21 02:01:13;;;;;;;2.97;2.78;;;;;;;17.31;84.24;98125.03;5051863;28;20045;-90
2022/08/21 02:03:41;;;;;;;2.60;2.40;;;;;;;17.36;84.71;98131.22;5052953;28;20116;-91
2022/08/21 02:06:17;;;;;;;3.20;2.30;;;;;;;17.43;84.56;98135.53;5068146;28;20041;-91
2022/08/21 02:08:46;;;;;;;2.38;2.17;;;;;;;17.42;84.94;98124.16;5052025;28;20484;-91
2022/08/21 02:11:14;;;;;;;2.80;2.50;;;;;;;17.41;84.69;98129.69;5058920;28;20952;-90
2022/08/21 02:13:41;;;;;;;2.90;2.65;;;;;;;17.42;84.72;98126.00;5042661;28;20432;-91
2022/08/21 02:16:11;;;;;;;4.50;3.38;;;;;;;17.48;83.77;98127.66;5031409;28;20042;-91
2022/08/21 02:18:43;;;;;;;3.67;2.60;;;;;;;17.38;84.27;98118.50;5031621;28;20120;-91
2022/08/21 02:21:12;;;;;;;2.97;2.70;;;;;;;17.38;84.06;98112.41;5015741;28;20132;-90
2022/08/21 02:23:39;;;;;;;3.00;2.78;;;;;;;17.39;84.60;98122.78;5032382;28;20049;-91
2022/08/21 02:26:08;;;;;;;4.63;3.05;;;;;;;17.46;84.73;98124.47;5049961;28;20180;-91
2022/08/21 02:28:37;;;;;;;4.82;2.65;;;;;;;17.50;83.71;98125.56;5050169;28;20048;-90
2022/08/21 02:31:06;;;;;;;4.88;3.90;;;;;;;17.43;83.64;98141.66;5032585;28;20548;-90
2022/08/21 02:33:33;;;;;;;3.13;2.90;;;;;;;17.33;84.14;98142.31;5041139;28;20049;-90
2022/08/21 02:36:02;;;;;;;2.50;2.30;;;;;;;17.28;84.47;98128.19;5064057;28;20091;-91
2022/08/21 02:38:33;;;;;;;2.72;2.35;;;;;;;17.39;84.48;98146.66;5032415;28;20121;-90
2022/08/21 02:41:01;;;;;;;3.00;2.70;;;;;;;17.49;84.26;98137.22;5032419;28;20644;-90
2022/08/21 02:43:28;;;;;;;3.67;3.33;;;;;;;17.41;83.84;98142.94;5044079;28;20037;-90
2022/08/21 02:45:57;;;;;;;3.88;3.00;;;;;;;17.09;84.40;98130.25;5046455;28;20408;-90
2022/08/21 02:48:29;;;;;;;4.63;2.80;;;;;;;17.10;84.71;98131.88;5020717;28;20386;-90
2022/08/21 02:51:19;;;;;;;7.78;3.35;;;;;;;16.99;85.25;98132.75;5044782;28;20056;-89
2022/08/21 02:53:50;;;;;;;2.45;2.25;;;;;;;17.04;85.44;98132.84;5048592;28;20558;-90
2022/08/21 02:56:19;;;;;;;;;;;;;;;17.17;85.41;98137.00;5050051;28;20090;-90
2022/08/21 02:58:51;;;;;;;2.80;2.00;;;;;;;17.24;85.13;98135.00;5030666;28;19929;-90
2022/08/21 03:01:19;;;;;;;5.38;2.72;;;;;;;17.24;84.78;98133.16;5030391;28;20120;-90
2022/08/21 03:03:51;;;;;;;2.53;2.33;;;;;;;17.27;84.59;98121.25;5045977;28;20459;-90
2022/08/21 03:06:22;;;;;;;2.38;2.17;;;;;;;17.43;84.49;98130.25;5050127;28;20037;-90
2022/08/21 03:08:49;;;;;;;;;;;;;;;17.48;84.24;98130.31;5047169;28;20535;-90
2022/08/21 03:11:16;;;;;;;2.70;2.50;;;;;;;17.42;84.14;98116.19;5031644;28;19931;-89
2022/08/21 03:13:43;;;;;;;2.83;2.53;;;;;;;17.48;83.89;98130.31;5057934;28;20045;-90
2022/08/21 03:16:10;;;;;;;3.00;2.70;;;;;;;17.50;83.99;98122.91;5046804;28;20672;-90
2022/08/21 03:18:37;;;;;;;2.65;2.45;;;;;;;17.45;84.22;98117.53;5053484;28;20072;-90
2022/08/21 03:21:05;;;;;;;4.00;2.50;;;;;;;17.55;84.65;98136.25;5056348;28;20037;-90
2022/08/21 03:23:33;;;;;;;3.25;2.95;;;;;;;17.44;83.96;98123.88;5040371;28;20084;-91
2022/08/21 03:26:00;;;;;;;3.17;2.80;;;;;;;17.53;84.35;98147.13;5038677;28;20481;-90
2022/08/21 03:28:28;;;;;;;2.80;2.55;;;;;;;17.58;84.42;98143.75;5067350;28;20041;-90
2022/08/21 03:30:55;;;;;;;8.38;2.92;;;;;;;17.46;84.05;98135.06;5050452;28;20106;-89
2022/08/21 03:33:22;;;;;;;23.65;4.35;;;;;;;17.35;84.26;98144.72;5043965;28;20484;-89
2022/08/21 03:36:05;;;;;;;16.80;3.42;;;;;;;17.22;84.18;98129.94;5030624;28;20045;-88
2022/08/21 03:38:33;;;;;;;;;;;;;;;17.26;84.80;98146.94;5038621;28;20045;-89
2022/08/21 03:41:02;;;;;;;2.35;2.15;;;;;;;17.25;85.35;98137.41;5041224;28;19958;-89
2022/08/21 03:43:30;;;;;;;4.63;2.33;;;;;;;17.15;84.91;98145.19;5050673;28;20037;-88
2022/08/21 03:46:03;;;;;;;2.42;2.20;;;;;;;17.23;85.38;98158.06;5045577;28;20451;-90
2022/08/21 03:48:30;;;;;;;10.02;2.13;;;;;;;17.25;85.15;98140.06;5046922;28;20053;-88
2022/08/21 03:50:57;;;;;;;2.80;2.60;;;;;;;17.24;85.22;98133.16;5031016;28;20042;-90
2022/08/21 03:53:26;;;;;;;2.28;2.08;;;;;;;17.28;85.20;98149.38;5043402;28;20049;-90
2022/08/21 03:55:53;;;;;;;2.55;2.35;;;;;;;17.34;85.12;98154.53;5013218;28;20585;-89
2022/08/21 03:58:25;;;;;;;4.30;2.97;;;;;;;17.41;85.22;98158.84;5030821;28;20129;-89
2022/08/21 04:00:58;;;;;;;6.53;3.35;;;;;;;17.42;85.09;98153.31;5049655;28;20053;-89
2022/08/21 04:03:27;;;;;;;3.17;2.88;;;;;;;17.48;84.79;98151.53;5031200;28;20124;-89
2022/08/21 04:05:54;;;;;;;3.55;3.25;;;;;;;17.43;84.88;98140.84;5030042;28;20049;-90
2022/08/21 04:08:21;;;;;;;3.47;3.00;;;;;;;17.54;84.43;98148.72;5035342;28;20041;-89
2022/08/21 04:10:53;;;;;;;3.20;2.90;;;;;;;17.47;84.50;98134.03;5013257;28;20053;-89
2022/08/21 04:13:22;;;;;;;2.80;2.60;;;;;;;17.56;84.38;98151.13;5045484;28;20046;-90
2022/08/21 04:15:50;;;;;;;2.88;2.58;;;;;;;17.57;84.44;98144.75;5030575;28;20515;-90
2022/08/21 04:18:16;;;;;;;2.90;2.63;;;;;;;17.59;84.09;98151.44;5037968;28;20048;-90
2022/08/21 04:20:48;;;;;;;10.10;3.38;;;;;;;17.54;83.70;98139.97;5047066;28;20062;-88
2022/08/21 04:23:20;;;;;;;2.65;2.45;;;;;;;17.66;83.84;98152.06;5041315;28;20053;-89
2022/08/21 04:25:52;;;;;;;2.83;2.40;;;;;;;17.60;83.29;98155.69;5048840;28;20072;-89
2022/08/21 04:28:21;;;;;;;4.88;2.78;;;;;;;17.54;83.57;98158.53;5049023;28;20399;-88
2022/08/21 04:30:51;;;;;;;2.67;2.45;;;;;;;17.38;83.77;98160.13;5032889;28;20063;-88
2022/08/21 04:33:20;;;;;;;3.05;2.70;;;;;;;17.32;83.94;98167.19;5049594;28;20076;-88
2022/08/21 04:35:49;;;;;;;2.10;1.90;;;;;;;17.30;83.78;98169.28;5050536;28;20132;-88
2022/08/21 04:38:16;;;;;;;9.80;3.35;;;;;;;17.30;83.92;98184.41;5034695;28;20507;-88
2022/08/21 04:40:44;;;;;;;2.95;2.65;;;;;;;17.30;84.79;98181.75;5067095;28;20404;-88
2022/08/21 04:43:12;;;;;;;13.60;3.38;;;;;;;17.27;85.14;98179.56;5050173;28;20064;-88
2022/08/21 04:45:44;;;;;;;5.40;2.80;;;;;;;17.29;85.57;98183.59;5064979;28;20051;-89
2022/08/21 04:48:14;;;;;;;2.63;2.42;;;;;;;17.31;85.42;98189.44;5066778;28;20083;-88
2022/08/21 04:50:47;;;;;;;5.90;3.95;;;;;;;17.34;85.90;98196.13;5059655;28;20037;-88
2022/08/21 04:53:27;;;;;;;6.68;3.40;;;;;;;17.23;85.27;98176.59;5046320;28;20041;-88
2022/08/21 04:55:57;;;;;;;7.05;3.30;;;;;;;17.34;85.47;98180.22;5070090;28;20052;-88
2022/08/21 04:58:26;;;;;;;3.28;2.95;;;;;;;17.37;84.88;98195.63;5069621;28;20049;-88
2022/08/21 05:00:57;;;;;;;4.13;2.67;;;;;;;17.35;84.77;98187.13;5055208;28;20476;-88
2022/08/21 05:03:24;;;;;;;2.58;2.15;;;;;;;17.44;84.92;98196.28;5061598;28;20513;-87
2022/08/21 05:05:52;;;;;;;2.50;1.90;;;;;;;17.39;84.19;98198.84;5033973;28;20037;-87
2022/08/21 05:08:23;;;;;;;5.28;2.33;;;;;;;17.34;84.93;98201.44;5033127;28;20051;-88
2022/08/21 05:10:50;;;;;;;2.80;1.90;;;;;;;17.32;83.95;98208.81;5015883;28;20049;-87
2022/08/21 05:13:17;;;;;;;10.80;2.47;;;;;;;17.22;84.56;98212.09;5033831;28;20041;-88
2022/08/21 05:15:44;;;;;;;6.60;3.28;;;;;;;17.23;84.97;98199.66;5016974;28;20117;-88
2022/08/21 05:18:12;;;;;;;13.55;3.35;;;;;;;17.19;85.05;98204.63;5034575;28;20045;-88
2022/08/21 05:20:39;;;;;;;2.58;2.38;;;;;;;17.20;85.28;98198.28;5037686;28;20531;-88
2022/08/21 05:23:12;;;;;;;2.80;2.50;;;;;;;17.32;85.47;98198.19;5054553;28;20098;-88
2022/08/21 05:25:40;;;;;;;3.60;3.03;;;;;;;17.29;84.89;98194.19;5033319;28;20046;-88
2022/08/21 05:28:07;;;;;;;2.67;2.00;;;;;;;17.33;83.93;98205.94;5032956;28;20554;-89
2022/08/21 05:30:35;;;;;;;13.30;3.15;;;;;;;17.22;84.55;98201.50;5049410;28;20056;-88
2022/08/21 05:33:05;;;;;;;5.90;3.13;;;;;;;17.26;84.58;98209.75;5034325;28;20045;-87
2022/08/21 05:35:33;;;;;;;2.80;2.47;;;;;;;17.19;84.88;98194.03;5040096;28;20037;-88
2022/08/21 05:38:01;;;;;;;2.72;2.53;;;;;;;17.33;85.22;98211.25;5039189;28;20288;-88
2022/08/21 05:40:29;;;;;;;42.08;5.13;;;;;;;17.26;84.54;98215.88;5032404;28;20413;-88
2022/08/21 05:42:56;;;;;;;3.20;2.90;;;;;;;17.25;85.08;98214.25;5033864;28;20049;-88
2022/08/21 05:45:29;;;;;;;4.18;2.92;;;;;;;17.17;84.46;98206.72;5032935;28;20037;-88
2022/08/21 05:48:22;;;;;;;3.25;2.95;;;;;;;17.35;85.16;98214.44;5017317;28;20784;-88
2022/08/21 05:50:51;;;;;;;3.85;2.88;;;;;;;17.40;85.68;98208.44;5015681;28;20050;-88
2022/08/21 05:53:21;;;;;;;3.33;3.03;;;;;;;17.49;85.59;98208.81;5029368;28;20533;-88
2022/08/21 05:55:48;;;;;;;3.83;3.15;;;;;;;17.54;85.16;98207.06;5015399;28;20077;-88
2022/08/21 05:58:19;;;;;;;6.25;4.05;;;;;;;17.57;84.89;98216.34;5032034;28;20042;-88
2022/08/21 06:00:48;;;;;;;4.45;3.80;;;;;;;17.60;85.47;98207.94;5016179;28;20053;-87
2022/08/21 06:03:26;;;;;;;5.03;3.72;;;;;;;17.66;85.50;98210.41;5032358;28;20052;-89
2022/08/21 06:05:54;;;;;;;4.95;3.15;;;;;;;17.75;85.01;98216.16;5016028;28;20092;-89
2022/08/21 06:08:21;;;;;;;8.40;3.70;;;;;;;17.81;84.70;98228.47;5032568;28;20095;-89
2022/08/21 06:10:51;;;;;;;19.75;4.18;;;;;;;17.76;83.65;98225.72;5016923;28;20046;-88
2022/08/21 06:13:20;;;;;;;3.42;3.13;;;;;;;17.72;84.10;98219.28;5052094;28;20095;-88
2022/08/21 06:15:48;;;;;;;4.35;2.25;;;;;;;17.74;83.60;98227.00;5052392;28;20040;-87
2022/08/21 06:18:16;;;;;;;2.42;2.22;;;;;;;17.77;83.93;98227.34;5053825;28;20049;-87
2022/08/21 06:20:43;;;;;;;4.07;2.80;;;;;;;17.71;84.01;98228.28;5051996;28;20045;-88
2022/08/21 06:23:09;;;;;;;4.28;3.03;;;;;;;17.76;84.80;98228.38;5068395;28;20052;-88
2022/08/21 06:25:39;;;;;;;6.22;3.13;;;;;;;17.87;84.20;98227.50;5061268;28;20049;-89
2022/08/21 06:28:09;;;;;;;3.70;3.40;;;;;;;17.94;84.34;98234.47;5034346;28;20504;-87
2022/08/21 06:30:39;;;;;;;10.48;3.95;;;;;;;17.85;83.56;98232.22;5032428;28;20056;-88
2022/08/21 06:33:06;;;;;;;23.98;4.82;;;;;;;17.80;83.72;98220.72;5033593;28;20052;-88
2022/08/21 06:35:35;;;;;;;17.77;3.63;;;;;;;17.72;83.14;98237.06;5052057;28;20044;-90
2022/08/21 06:38:02;;;;;;;3.92;3.00;;;;;;;17.68;84.63;98234.03;5050538;28;20041;-89
2022/08/21 06:40:32;;;;;;;3.15;2.85;;;;;;;17.70;85.36;98231.97;5069217;28;20048;-88
2022/08/21 06:43:15;;;;;;;3.63;2.72;;;;;;;17.87;85.05;98231.97;5051285;28;20390;-89
2022/08/21 06:45:43;;;;;;;3.08;2.78;;;;;;;18.00;84.57;98241.47;5053258;28;20072;-88
2022/08/21 06:48:10;;;;;;;4.07;3.53;;;;;;;18.03;84.75;98238.31;5040724;28;20665;-88
2022/08/21 06:50:42;;;;;;;4.10;3.53;;;;;;;18.10;84.10;98237.06;5021588;28;20055;-89
2022/08/21 06:53:13;;;;;;;4.05;3.30;;;;;;;18.08;84.10;98236.53;5047038;28;20041;-88
2022/08/21 06:55:41;;;;;;;;;;;;;;;18.02;82.99;98240.16;5051900;28;20091;-88
2022/08/21 06:58:10;;;;;;;7.03;3.42;;;;;;;17.92;83.30;98240.00;5050091;28;20381;-89
2022/08/21 07:00:44;;;;;;;10.60;5.20;;;;;;;17.98;84.38;98240.88;5051391;28;20613;-89
2022/08/21 07:03:35;;;;;;;13.77;3.83;;;;;;;17.86;82.71;98236.47;5052294;28;20140;-87
2022/08/21 07:06:04;;;;;;;4.22;3.38;;;;;;;17.96;84.47;98241.13;5051845;28;20049;-91
2022/08/21 07:08:31;;;;;;;4.80;4.10;;;;;;;18.08;84.94;98233.06;5052447;28;20439;-91
2022/08/21 07:11:06;;;;;;;5.30;4.13;;;;;;;18.13;83.83;98233.16;5035763;28;20052;-91
2022/08/21 07:13:33;;;;;;;5.35;3.80;;;;;;;18.26;83.83;98238.09;5045879;28;20045;-92
2022/08/21 07:16:00;;;;;;;4.82;3.72;;;;;;;18.35;83.93;98249.09;5045882;28;20040;-91
2022/08/21 07:18:30;;;;;;;6.07;3.97;;;;;;;18.42;83.26;98244.41;5059417;28;20059;-91
2022/08/21 07:21:00;;;;;;;5.78;4.35;;;;;;;18.37;82.90;98231.88;5065526;28;20063;-92
2022/08/21 07:23:32;;;;;;;5.63;4.70;;;;;;;18.41;82.41;98237.47;5046259;28;20053;-92
2022/08/21 07:26:00;;;;;;;6.13;4.07;;;;;;;18.46;83.10;98238.34;5052460;28;20041;-91
2022/08/21 07:28:29;;;;;;;5.20;4.10;;;;;;;18.46;83.02;98237.56;5048094;28;20136;-91
2022/08/21 07:30:59;;;;;;;5.15;4.20;;;;;;;18.56;82.59;98244.84;5038988;28;20052;-92
2022/08/21 07:33:28;;;;;;;4.83;3.70;;;;;;;18.52;82.45;98235.75;5055723;28;20052;-91
2022/08/21 07:35:56;;;;;;;5.63;4.13;;;;;;;18.56;81.46;98250.97;5047422;28;20052;-92
2022/08/21 07:38:24;;;;;;;4.72;3.47;;;;;;;18.65;83.06;98248.66;5047304;28;20075;-92
2022/08/21 07:40:55;;;;;;;5.53;4.32;;;;;;;18.72;81.61;98244.03;5071438;28;20052;-91
2022/08/21 07:43:22;;;;;;;6.72;4.65;;;;;;;18.80;81.66;98240.91;5072239;28;20041;-93
2022/08/21 07:45:49;;;;;;;4.90;3.90;;;;;;;18.84;80.71;98238.56;5057623;28;20045;-91
2022/08/21 07:48:16;;;;;;;5.40;3.75;;;;;;;18.83;81.08;98242.25;5049403;28;20040;-93
2022/08/21 07:50:43;;;;;;;6.55;5.30;;;;;;;18.90;81.76;98249.00;5045271;28;20044;-92
2022/08/21 07:53:10;;;;;;;5.55;4.97;;;;;;;18.84;82.19;98236.72;5070014;28;20084;-92
2022/08/21 07:55:38;;;;;;;5.38;4.45;;;;;;;19.04;81.38;98245.94;5071421;28;20058;-92
2022/08/21 07:58:05;;;;;;;5.30;4.00;;;;;;;19.17;81.88;98241.03;5087334;28;20500;-93
2022/08/21 08:00:32;;;;;;;5.35;4.68;;;;;;;19.08;80.55;98226.59;5041758;28;20045;-93
2022/08/21 08:02:59;;;;;;;5.95;5.35;;;;;;;19.14;80.57;98235.44;5052444;28;20545;-91
2022/08/21 08:05:29;;;;;;;4.95;3.97;;;;;;;19.13;79.48;98239.09;5053066;28;20564;-91
2022/08/21 08:07:56;;;;;;;5.28;4.43;;;;;;;19.02;80.22;98232.13;5033022;28;20041;-92
2022/08/21 08:10:24;;;;;;;7.63;6.90;;;;;;;18.85;80.14;98238.31;5066967;28;20496;-91
2022/08/21 08:12:54;;;;;;;5.75;5.10;;;;;;;18.76;81.39;98245.09;5051655;28;20041;-90
2022/08/21 08:15:25;;;;;;;6.18;5.25;;;;;;;18.82;80.98;98238.00;5054020;28;20041;-92
2022/08/21 08:17:54;;;;;;;5.05;4.55;;;;;;;18.96;82.25;98239.22;5078785;28;20386;-91
2022/08/21 08:20:22;;;;;;;6.20;5.10;;;;;;;18.96;82.42;98232.06;5054092;28;20052;-90
2022/08/21 08:22:49;;;;;;;6.25;5.65;;;;;;;18.98;81.06;98229.94;5045990;28;20040;-91
2022/08/21 08:25:19;;;;;;;5.45;4.93;;;;;;;19.16;81.91;98241.28;5058645;28;20042;-88
2022/08/21 08:27:47;;;;;;;11.50;7.75;;;;;;;19.11;80.50;98222.63;5052847;28;20037;-91
2022/08/21 08:30:17;;;;;;;4.80;4.15;;;;;;;19.20;81.40;98229.09;5053684;28;20052;-88
2022/08/21 08:32:46;;;;;;;5.82;4.97;;;;;;;19.29;81.64;98221.47;5032288;28;20049;-89
2022/08/21 08:35:14;;;;;;;5.40;4.90;;;;;;;19.36;80.76;98222.84;5054162;28;20067;-88
2022/08/21 08:37:41;;;;;;;6.82;6.07;;;;;;;19.39;79.50;98230.31;5042542;28;20107;-90
2022/08/21 08:40:22;;;;;;;4.72;4.22;;;;;;;19.29;80.35;98213.47;5031390;28;20111;-91
2022/08/21 08:42:50;;;;;;;5.35;4.75;;;;;;;19.22;80.29;98219.00;5049239;28;20056;-90
2022/08/21 08:45:23;;;;;;;7.13;6.40;;;;;;;19.21;80.29;98225.38;5042681;28;20051;-90
2022/08/21 08:48:05;;;;;;;4.93;4.43;;;;;;;19.33;81.40;98225.22;5071776;28;20106;-88
2022/08/21 08:50:56;;;;;;;6.07;5.47;;;;;;;19.36;80.55;98230.81;5068036;28;20721;-91
2022/08/21 08:53:30;;;;;;;6.00;5.30;;;;;;;19.39;80.88;98226.88;5057812;28;20037;-89
2022/08/21 08:56:00;;;;;;;5.18;4.72;;;;;;;19.37;80.29;98216.50;5035911;28;20085;-88
2022/08/21 08:58:39;;;;;;;7.32;6.50;;;;;;;19.42;80.72;98219.16;5053354;28;20611;-88
2022/08/21 09:01:17;;;;;;;6.68;5.88;;;;;;;19.42;79.50;98232.47;5037234;28;20045;-89
2022/08/21 09:03:49;;;;;;;5.10;4.60;;;;;;;19.49;81.36;98233.09;5017432;28;20053;-89
2022/08/21 09:06:36;;;;;;;7.60;6.82;;;;;;;19.36;78.95;98222.03;5022713;28;20110;-90
2022/08/21 09:09:37;;;;;;;5.53;4.93;;;;;;;19.48;81.08;98231.44;5035285;28;20041;-89
2022/08/21 09:12:16;;;;;;;8.25;6.07;;;;;;;19.38;79.66;98218.09;5045022;28;20768;-89
2022/08/21 09:15:06;;;;;;;5.78;4.93;;;;;;;19.54;81.18;98219.00;5035718;28;20045;-90
2022/08/21 09:17:55;;;;;;;5.40;4.90;;;;;;;19.64;79.14;98213.78;5032522;28;20493;-86
2022/08/21 09:20:47;;;;;;;5.03;4.53;;;;;;;19.69;80.13;98202.41;5038874;28;20042;-84
2022/08/21 09:23:31;;;;;;;5.28;4.78;;;;;;;19.90;80.20;98219.28;5055120;28;20127;-89
2022/08/21 09:26:22;;;;;;;6.35;5.68;;;;;;;19.98;78.79;98219.63;5045187;28;20130;-88
2022/08/21 09:28:57;;;;;;;5.55;4.88;;;;;;;20.05;78.78;98225.50;5051203;28;20550;-88
2022/08/21 09:31:37;;;;;;;5.47;4.97;;;;;;;20.04;76.82;98223.13;5050194;28;20033;-90
2022/08/21 09:34:09;;;;;;;6.93;6.23;;;;;;;19.82;77.31;98223.22;5045180;28;20128;-89
2022/08/21 09:36:42;;;;;;;7.18;6.55;;;;;;;19.64;77.62;98223.63;5048214;28;20041;-83
2022/08/21 09:39:13;;;;;;;6.03;5.53;;;;;;;19.72;79.16;98215.16;5029843;28;20056;-89
2022/08/21 09:41:40;;;;;;;7.22;6.53;;;;;;;19.85;78.72;98206.78;5033076;28;20041;-86
2022/08/21 09:44:08;;;;;;;7.03;6.32;;;;;;;19.96;77.00;98211.06;5050403;28;20052;-87
2022/08/21 09:46:36;;;;;;;7.43;6.65;;;;;;;20.09;78.43;98220.50;5050350;28;20040;-87
2022/08/21 09:49:04;;;;;;;6.88;6.28;;;;;;;20.15;78.96;98194.66;5045570;28;20044;-87
2022/08/21 09:51:36;;;;;;;7.03;6.32;;;;;;;20.24;75.68;98212.56;5031231;28;20037;-87
2022/08/21 09:54:06;;;;;;;7.00;6.22;;;;;;;20.37;77.16;98213.94;5054347;28;20068;-87
2022/08/21 09:59:46;;;;;;;7.75;7.03;;;;;;;20.46;76.84;98212.44;5048072;28;20049;-88
2022/08/21 10:02:37;;;;;;;7.32;6.60;;;;;;;20.64;77.12;98205.84;5050529;28;20382;-88
2022/08/21 10:05:27;;;;;;;7.10;6.20;;;;;;;20.69;76.10;98202.38;5051202;28;20114;-88
2022/08/21 10:07:53;;;;;;;10.15;9.15;;;;;;;20.66;74.15;98202.91;5066194;28;20056;-87
2022/08/21 10:10:28;;;;;;;7.50;6.80;;;;;;;20.74;75.80;98199.72;5039495;28;20073;-87
2022/08/21 10:13:12;;;;;;;8.15;7.32;;;;;;;20.87;76.00;98209.91;5078469;28;20493;-87
2022/08/21 10:16:13;;;;;;;7.20;6.50;;;;;;;20.96;73.75;98210.97;5059155;28;20106;-87
2022/08/21 10:18:56;;;;;;;7.20;6.50;;;;;;;21.05;73.20;98196.06;5031534;28;20096;-87
2022/08/21 10:21:43;;;;;;;10.50;9.50;;;;;;;20.95;72.92;98196.03;5037831;28;20489;-86
2022/08/21 10:24:32;;;;;;;7.13;6.50;;;;;;;21.24;73.91;98192.88;5042219;28;20116;-85
2022/08/21 10:27:20;;;;;;;6.40;5.45;;;;;;;21.79;72.70;98199.28;5033223;28;20095;-85
2022/08/21 10:30:04;;;;;;;6.50;5.90;;;;;;;21.84;71.40;98196.63;5056454;28;20076;-86
2022/08/21 10:32:59;;;;;;;6.53;5.90;;;;;;;21.94;72.14;98196.56;5049270;28;20380;-87
2022/08/21 10:36:05;;;;;;;5.22;4.78;;;;;;;22.11;73.13;98196.28;5049208;28;20057;-84
2022/08/21 10:38:54;;;;;;;6.05;5.55;;;;;;;22.18;70.42;98197.59;5049202;28;20531;-86
2022/08/21 10:42:08;;;;;;;6.78;6.13;;;;;;;22.30;70.19;98185.81;5039640;28;20128;-85
2022/08/21 10:44:56;;;;;;;7.22;6.53;;;;;;;22.25;68.01;98191.16;5041177;28;20092;-86
2022/08/21 10:47:34;;;;;;;8.18;7.35;;;;;;;22.29;69.25;98181.53;5040557;28;20072;-85
2022/08/21 10:50:10;;;;;;;11.13;9.90;;;;;;;22.17;68.92;98188.00;5052134;28;20048;-86
2022/08/21 10:53:17;;;;;;;8.02;7.32;;;;;;;22.25;68.80;98183.16;5042679;28;20067;-84
2022/08/21 10:55:58;;;;;;;8.02;7.32;;;;;;;22.08;68.83;98188.81;5052855;28;20137;-86
2022/08/21 10:58:48;;;;;;;8.38;7.57;;;;;;;22.06;68.75;98172.25;5043654;28;20719;-85
2022/08/21 11:02:00;;;;;;;7.57;6.85;;;;;;;22.27;69.34;98175.69;5039537;28;20544;-85
2022/08/21 11:04:52;;;;;;;6.90;6.28;;;;;;;22.52;69.75;98175.56;5050395;28;20407;-85
2022/08/21 11:07:39;;;;;;;8.07;7.28;;;;;;;22.67;68.76;98170.16;5055388;28;20037;-85
2022/08/21 11:10:24;;;;;;;8.15;7.45;;;;;;;22.65;67.66;98171.47;5052794;28;20040;-85
2022/08/21 11:13:02;;;;;;;6.75;6.15;;;;;;;22.78;68.06;98172.75;5052774;28;20067;-85
2022/08/21 11:15:56;;;;;;;7.80;7.10;;;;;;;22.81;68.46;98167.66;5050225;28;20047;-85
2022/08/21 11:19:07;;;;;;;7.75;7.05;;;;;;;22.90;67.16;98162.53;5049593;28;20034;-85
2022/08/21 11:22:07;;;;;;;;;;;;;;;;;;;;;
2022/08/21 11:25:03;;;;;;;7.85;7.15;;;;;;;23.17;65.98;98159.41;5047760;28;20675;-86
2022/08/21 11:27:57;;;;;;;7.20;6.60;;;;;;;23.32;67.05;98167.28;5031011;28;20408;-86
2022/08/21 11:30:42;;;;;;;7.35;6.65;;;;;;;23.45;66.36;98166.66;5055664;28;20472;-84
2022/08/21 11:33:56;;;;;;;6.35;5.75;;;;;;;23.65;65.53;98160.34;5056262;28;20061;-84
2022/08/21 11:36:56;;;;;;;5.97;5.47;;;;;;;23.69;64.63;98156.03;5047435;28;20059;-85
2022/08/21 11:39:56;;;;;;;7.10;6.50;;;;;;;23.68;63.59;98146.38;5063336;28;20040;-85
2022/08/21 11:42:35;;;;;;;5.63;5.13;;;;;;;23.79;62.60;98146.28;5065258;28;20040;-86
2022/08/21 11:45:38;;;;;;;5.90;5.30;;;;;;;23.82;60.32;98145.75;5043183;28;20508;-87
2022/08/21 11:48:45;;;;;;;4.97;4.57;;;;;;;23.88;56.17;98137.34;5049428;28;20049;-86
2022/08/21 11:51:20;;;;;;;5.38;4.97;;;;;;;23.74;55.78;98125.72;5037739;28;20045;-87
2022/08/21 11:54:00;;;;;;;4.20;3.90;;;;;;;23.82;56.59;98121.63;5030477;28;20107;-87
2022/08/21 11:56:38;;;;;;;4.28;3.88;;;;;;;23.98;56.23;98128.38;5030836;28;20034;-85
2022/08/21 11:59:21;;;;;;;4.13;3.60;;;;;;;24.07;60.31;98113.28;5030402;28;20151;-87
2022/08/21 12:01:51;;;;;;;4.00;3.70;;;;;;;24.40;55.14;98118.78;5049000;28;20476;-85
2022/08/21 12:04:47;;;;;;;4.37;3.97;;;;;;;24.48;57.15;98126.19;5067526;28;20094;-86
2022/08/21 12:07:32;;;;;;;4.55;4.15;;;;;;;24.52;56.33;98116.47;5039701;28;20041;-85